createdAt,value
2018-07-03T00:00:07.734Z,1017.08
2018-07-03T00:01:07.766Z,1017.24
2018-07-03T00:02:07.702Z,1017.01
2018-07-03T00:03:07.694Z,1017.27
2018-07-03T00:04:07.702Z,1017.53
2018-07-03T00:05:07.707Z,1017.58
2018-07-03T00:06:07.714Z,1017.57
2018-07-03T00:07:07.691Z,1017.65
2018-07-03T00:08:07.667Z,1017.54
2018-07-03T00:09:07.686Z,1017.52
2018-07-03T00:10:07.688Z,1017.49
2018-07-03T00:11:07.681Z,1017.53
2018-07-03T00:12:07.671Z,1017.49
2018-07-03T00:13:07.682Z,1017.65
2018-07-03T00:14:07.701Z,1017.46
2018-07-03T00:15:07.686Z,1017.04
2018-07-03T00:16:07.691Z,1017.39
2018-07-03T00:17:07.694Z,1017.28
2018-07-03T00:18:07.712Z,1017.32
2018-07-03T00:19:07.701Z,1017.55
2018-07-03T00:20:07.708Z,1017.39
2018-07-03T00:21:07.695Z,1017.64
2018-07-03T00:22:07.697Z,1017.52
2018-07-03T00:23:07.729Z,1017.42
2018-07-03T00:24:07.705Z,1017.5
2018-07-03T00:25:07.693Z,1017.51
2018-07-03T00:26:07.756Z,1017.69
2018-07-03T00:27:07.747Z,1017.64
2018-07-03T00:28:07.769Z,1017.53
2018-07-03T00:29:07.740Z,1017.63
2018-07-03T00:30:07.734Z,1017.7
2018-07-03T00:31:07.749Z,1017.55
2018-07-03T00:32:07.758Z,1017.91
2018-07-03T00:33:07.774Z,1017.66
2018-07-03T00:34:07.747Z,1017.65
2018-07-03T00:35:07.753Z,1017.81
2018-07-03T00:36:07.748Z,1017.47
2018-07-03T00:37:07.748Z,1017.66
2018-07-03T00:38:07.758Z,1018.09
2018-07-03T00:39:07.766Z,1017.85
2018-07-03T00:40:07.748Z,1017.92
2018-07-03T00:41:07.765Z,1017.73
2018-07-03T00:42:07.766Z,1017.87
2018-07-03T00:43:07.768Z,1017.63
2018-07-03T00:44:07.758Z,1017.81
2018-07-03T00:45:07.763Z,1018.03
2018-07-03T00:46:07.777Z,1017.88
2018-07-03T00:47:07.795Z,1017.74
2018-07-03T00:48:07.794Z,1018.05
2018-07-03T00:49:07.792Z,1018
2018-07-03T00:50:07.769Z,1017.97
2018-07-03T00:51:07.805Z,1018.13
2018-07-03T00:52:07.792Z,1017.87
2018-07-03T00:53:07.788Z,1018.16
2018-07-03T00:54:07.824Z,1017.82
2018-07-03T00:55:07.804Z,1018.16
2018-07-03T00:56:07.811Z,1018.25
2018-07-03T00:57:07.784Z,1018.34
2018-07-03T00:58:07.822Z,1018.5
2018-07-03T00:59:07.809Z,1018.41
2018-07-03T01:00:07.801Z,1018.53
2018-07-03T01:01:07.819Z,1018.45
2018-07-03T01:02:07.810Z,1018.44
2018-07-03T01:03:07.801Z,1018.42
2018-07-03T01:04:07.796Z,1018.68
2018-07-03T01:05:07.791Z,1018.52
2018-07-03T01:06:07.803Z,1018.9
2018-07-03T01:07:07.822Z,1018.5
2018-07-03T01:08:07.834Z,1018.71
2018-07-03T01:09:07.833Z,1018.49
2018-07-03T01:10:07.824Z,1019.05
2018-07-03T01:12:28.855Z,1018.74
2018-07-03T01:19:09.164Z,1019.08
2018-07-03T01:20:09.160Z,1019.15
2018-07-03T01:21:09.124Z,1019.07
2018-07-03T01:22:09.132Z,1019.62
2018-07-03T01:23:09.137Z,1019.35
2018-07-03T01:24:09.169Z,1019.36
2018-07-03T01:25:09.137Z,1019.27
2018-07-03T01:26:09.172Z,1019.29
2018-07-03T01:27:09.135Z,1019.29
2018-07-03T01:28:09.154Z,1019.21
2018-07-03T01:29:09.160Z,1019.42
2018-07-03T01:30:09.154Z,1019.39
2018-07-03T01:31:09.135Z,1019.94
2018-07-03T01:32:09.164Z,1019.56
2018-07-03T01:33:09.144Z,1019.42
2018-07-03T01:34:09.155Z,1019.71
2018-07-03T01:35:09.164Z,1019.78
2018-07-03T01:36:09.190Z,1019.86
2018-07-03T01:37:09.166Z,1020.12
2018-07-03T01:38:09.145Z,1020.1
2018-07-03T01:39:09.161Z,1020.03
2018-07-03T01:40:09.156Z,1020.24
2018-07-03T01:41:09.167Z,1020.18
2018-07-03T01:42:09.171Z,1020.47
2018-07-03T01:43:09.166Z,1020.64
2018-07-03T01:44:09.158Z,1020.62
2018-07-03T01:45:09.191Z,1020.74
2018-07-03T01:46:09.207Z,1021.19
2018-07-03T01:47:09.179Z,1020.7
2018-07-03T01:48:09.180Z,1020.72
2018-07-03T01:49:09.193Z,1020.97
2018-07-03T01:50:09.186Z,1020.97
2018-07-03T01:51:09.193Z,1021.14
2018-07-03T01:52:09.183Z,1021.15
2018-07-03T01:53:09.189Z,1021.22
2018-07-03T01:54:09.186Z,1021.63
2018-07-03T01:55:09.194Z,1021.33
2018-07-03T01:56:09.185Z,1021.43
2018-07-03T01:57:09.197Z,1021.45
2018-07-03T01:58:09.186Z,1021.57
2018-07-03T01:59:09.227Z,1021.76
2018-07-03T02:00:09.183Z,1022.06
2018-07-03T02:01:09.193Z,1021.83
2018-07-03T02:02:09.203Z,1021.65
2018-07-03T02:03:09.193Z,1021.9
2018-07-03T02:04:09.202Z,1021.94
2018-07-03T02:05:09.193Z,1022.05
2018-07-03T02:06:09.197Z,1022.05
2018-07-03T02:07:09.196Z,1022.27
2018-07-03T02:08:09.201Z,1022.31
2018-07-03T02:09:09.208Z,1022.33
2018-07-03T02:10:09.205Z,1022.26
2018-07-03T02:11:09.223Z,1022.54
2018-07-03T02:12:09.226Z,1022.69
2018-07-03T02:13:09.209Z,1022.77
2018-07-03T02:14:09.216Z,1022.97
2018-07-03T02:15:09.222Z,1023.03
2018-07-03T02:16:09.222Z,1023.29
2018-07-03T02:17:09.237Z,1023.04
2018-07-03T02:18:09.574Z,1023.24
2018-07-03T02:19:09.247Z,1023.67
2018-07-03T02:20:09.222Z,1023.63
2018-07-03T02:21:09.243Z,1023.42
2018-07-03T02:22:09.242Z,1023.63
2018-07-03T02:23:09.237Z,1023.54
2018-07-03T02:24:09.243Z,1024.09
2018-07-03T02:25:09.248Z,1024.12
2018-07-03T02:26:09.259Z,1023.96
2018-07-03T02:27:09.269Z,1024.13
2018-07-03T02:28:09.291Z,1023.65
2018-07-03T02:29:09.259Z,1023.87
2018-07-03T02:30:09.237Z,1024
2018-07-03T02:31:09.233Z,1023.79
2018-07-03T02:32:09.267Z,1024.09
2018-07-03T02:33:09.287Z,1024.11
2018-07-03T02:34:09.252Z,1024.06
2018-07-03T02:35:09.283Z,1024.11
2018-07-03T02:36:09.263Z,1024.02
2018-07-03T02:37:09.252Z,1023.73
2018-07-03T02:38:09.275Z,1023.97
2018-07-03T02:39:09.321Z,1024.17
2018-07-03T02:40:09.292Z,1024.02
2018-07-03T02:41:09.269Z,1024.5
2018-07-03T02:42:09.264Z,1024.11
2018-07-03T02:43:09.288Z,1024.26
2018-07-03T02:44:09.284Z,1024.03
2018-07-03T02:45:09.273Z,1023.91
2018-07-03T02:46:09.280Z,1024.01
2018-07-03T02:47:09.791Z,1024.27
2018-07-03T02:48:09.705Z,1024.23
2018-07-03T02:49:09.278Z,1024.33
2018-07-03T02:50:09.293Z,1023.91
2018-07-03T02:51:09.276Z,1024.31
2018-07-03T02:52:09.327Z,1024.18
2018-07-03T02:53:09.299Z,1024.4
2018-07-03T02:54:09.303Z,1024.43
2018-07-03T02:55:09.301Z,1024.22
2018-07-03T02:56:09.308Z,1024.34
2018-07-03T02:57:09.300Z,1024.28
2018-07-03T02:58:26.509Z,1024.3
2018-07-03T02:59:26.475Z,1024.29
2018-07-03T03:00:26.503Z,1024.29
2018-07-03T03:01:26.527Z,1024.31
2018-07-03T03:02:26.496Z,1024.57
2018-07-03T03:03:26.518Z,1024.69
2018-07-03T03:04:26.508Z,1024.43
2018-07-03T03:05:26.493Z,1024.74
2018-07-03T03:06:26.510Z,1024.43
2018-07-03T03:07:26.493Z,1024.26
2018-07-03T03:08:26.530Z,1024.28
2018-07-03T03:09:26.522Z,1024.36
2018-07-03T03:10:26.514Z,1024.33
2018-07-03T03:11:26.533Z,1024.16
2018-07-03T03:12:26.496Z,1024.38
2018-07-03T03:13:26.506Z,1024.54
2018-07-03T03:14:26.543Z,1024.25
2018-07-03T03:15:26.517Z,1024.32
2018-07-03T03:16:26.523Z,1024.27
2018-07-03T03:17:26.507Z,1024.38
2018-07-03T03:18:26.533Z,1024.33
2018-07-03T03:19:26.526Z,1024.41
2018-07-03T03:20:26.529Z,1024.51
2018-07-03T03:21:26.573Z,1024.71
2018-07-03T03:22:26.526Z,1024.53
2018-07-03T03:23:26.877Z,1024.87
2018-07-03T03:24:26.528Z,1024.8
2018-07-03T03:25:26.580Z,1024.73
2018-07-03T03:26:26.536Z,1024.79
2018-07-03T03:27:26.537Z,1024.98
2018-07-03T03:28:26.523Z,1024.92
2018-07-03T03:29:26.559Z,1024.76
2018-07-03T03:30:26.554Z,1025.07
2018-07-03T03:31:26.571Z,1025.17
2018-07-03T03:32:26.581Z,1025.21
2018-07-03T03:33:26.548Z,1024.97
2018-07-03T03:34:26.569Z,1024.89
2018-07-03T03:35:26.565Z,1025
2018-07-03T03:36:26.576Z,1025.13
2018-07-03T03:37:26.578Z,1024.88
2018-07-03T03:38:26.544Z,1025.25
2018-07-03T03:39:26.561Z,1025.09
2018-07-03T03:40:26.554Z,1025.23
2018-07-03T03:41:26.564Z,1025.05
2018-07-03T03:42:26.595Z,1025.47
2018-07-03T03:43:26.574Z,1025.29
2018-07-03T03:44:26.621Z,1025.14
2018-07-03T03:45:26.560Z,1025.24
2018-07-03T03:46:26.597Z,1025.02
2018-07-03T03:47:26.577Z,1025.23
2018-07-03T03:48:26.606Z,1025.18
2018-07-03T03:49:26.588Z,1025.23
2018-07-03T03:50:26.604Z,1025.01
2018-07-03T03:51:26.617Z,1025.11
2018-07-03T03:52:26.610Z,1025.23
2018-07-03T03:53:26.932Z,1025.36
2018-07-03T03:54:26.592Z,1025.2
2018-07-03T03:55:26.588Z,1025.34
2018-07-03T03:56:26.634Z,1025.02
2018-07-03T03:57:26.607Z,1025.08
2018-07-03T03:58:26.599Z,1024.98
2018-07-03T03:59:26.588Z,1025.03
2018-07-03T04:00:26.592Z,1024.67
2018-07-03T04:01:26.598Z,1024.41
2018-07-03T04:02:26.640Z,1024.67
2018-07-03T04:03:26.626Z,1024.62
2018-07-03T04:04:26.609Z,1024.99
2018-07-03T04:05:26.603Z,1024.63
2018-07-03T04:06:26.608Z,1024.7
2018-07-03T04:07:26.668Z,1025.21
2018-07-03T04:08:26.635Z,1024.63
2018-07-03T04:09:26.621Z,1024.87
2018-07-03T04:10:26.628Z,1025.04
2018-07-03T04:11:26.644Z,1024.83
2018-07-03T04:12:26.626Z,1024.6
2018-07-03T04:13:26.655Z,1024.63
2018-07-03T04:14:26.624Z,1024.68
2018-07-03T04:15:26.648Z,1024.53
2018-07-03T04:16:26.638Z,1024.56
2018-07-03T04:17:26.643Z,1024.64
2018-07-03T04:18:26.638Z,1024.74
2018-07-03T04:19:26.627Z,1024.6
2018-07-03T04:20:26.631Z,1024.75
2018-07-03T04:21:26.630Z,1025.3
2018-07-03T04:22:26.645Z,1025.49
2018-07-03T04:23:26.642Z,1025.38
2018-07-03T04:24:26.651Z,1025.46
2018-07-03T04:25:26.695Z,1025.61
2018-07-03T04:26:26.655Z,1025.5
2018-07-03T04:27:26.692Z,1025.85
2018-07-03T04:28:26.685Z,1025.83
2018-07-03T04:29:26.670Z,1025.95
2018-07-03T04:30:26.640Z,1026.1
2018-07-03T04:31:26.682Z,1026.15
2018-07-03T04:32:26.663Z,1025.7
2018-07-03T04:33:26.661Z,1025.66
2018-07-03T04:34:26.663Z,1025.55
2018-07-03T04:35:26.656Z,1025.29
2018-07-03T04:36:26.667Z,1025.36
2018-07-03T04:37:26.671Z,1024.79
2018-07-03T04:38:26.667Z,1025.01
2018-07-03T04:39:26.680Z,1024.77
2018-07-03T04:40:26.662Z,1024.58
2018-07-03T04:41:26.707Z,1024.48
2018-07-03T04:42:26.660Z,1024.44
2018-07-03T04:43:26.672Z,1024.44
2018-07-03T04:44:26.703Z,1024.56
2018-07-03T04:45:26.697Z,1024.49
2018-07-03T04:46:26.678Z,1024.27
2018-07-03T04:47:26.669Z,1024.37
2018-07-03T04:48:26.671Z,1024.19
2018-07-03T04:49:26.669Z,1023.98
2018-07-03T04:50:26.691Z,1024.15
2018-07-03T04:51:26.697Z,1024.09
2018-07-03T04:52:26.718Z,1023.87
2018-07-03T04:53:26.701Z,1023.49
2018-07-03T04:54:26.712Z,1023.32
2018-07-03T04:55:26.699Z,1023.23
2018-07-03T04:56:26.706Z,1022.97
2018-07-03T04:57:26.714Z,1022.48
2018-07-03T04:58:26.708Z,1022.49
2018-07-03T04:59:26.700Z,1022
2018-07-03T05:00:26.706Z,1021.85
2018-07-03T05:01:26.723Z,1021.68
2018-07-03T05:02:26.721Z,1021.59
2018-07-03T05:03:26.728Z,1021.54
2018-07-03T05:04:26.757Z,1021.24
2018-07-03T05:05:26.768Z,1021.26
2018-07-03T05:06:26.720Z,1020.89
2018-07-03T05:07:26.716Z,1020.98
2018-07-03T05:08:26.756Z,1020.71
2018-07-03T05:09:26.731Z,1020.56
2018-07-03T05:10:27.951Z,1020.32
2018-07-03T05:11:26.763Z,1019.94
2018-07-03T05:12:26.797Z,1019.79
2018-07-03T05:13:26.719Z,1019.81
2018-07-03T05:14:26.733Z,1019.76
2018-07-03T05:15:26.737Z,1019.46
2018-07-03T05:16:26.759Z,1019.85
2018-07-03T05:17:26.835Z,1019.27
2018-07-03T05:18:26.757Z,1019.19
2018-07-03T05:19:26.735Z,1019.29
2018-07-03T05:20:26.744Z,1019.1
2018-07-03T05:21:26.783Z,1019.04
2018-07-03T05:22:26.778Z,1018.86
2018-07-03T05:23:26.738Z,1018.76
2018-07-03T05:24:26.760Z,1018.83
2018-07-03T05:25:26.775Z,1018.74
2018-07-03T05:26:26.758Z,1018.95
2018-07-03T05:27:26.775Z,1018.83
2018-07-03T05:28:26.834Z,1018.58
2018-07-03T05:29:26.761Z,1018.56
2018-07-03T05:30:26.763Z,1018.65
2018-07-03T05:31:26.808Z,1018.31
2018-07-03T05:32:26.777Z,1018.63
2018-07-03T05:33:26.762Z,1018.6
2018-07-03T05:34:26.770Z,1018.31
2018-07-03T05:35:26.756Z,1018.29
2018-07-03T05:36:26.780Z,1018.53
2018-07-03T05:37:26.794Z,1018.47
2018-07-03T05:38:26.775Z,1018.12
2018-07-03T05:39:26.787Z,1018.24
2018-07-03T05:40:26.773Z,1018.47
2018-07-03T05:41:26.768Z,1018.34
2018-07-03T05:42:26.775Z,1018.13
2018-07-03T05:43:26.771Z,1018.29
2018-07-03T05:44:26.787Z,1018.53
2018-07-03T05:45:26.786Z,1018.44
2018-07-03T05:46:26.793Z,1018.42
2018-07-03T05:47:26.823Z,1018.43
2018-07-03T05:48:26.776Z,1018.67
2018-07-03T05:49:26.829Z,1018.22
2018-07-03T05:50:26.805Z,1018.51
2018-07-03T05:51:26.794Z,1018.5
2018-07-03T05:52:26.790Z,1018.37
2018-07-03T05:53:26.796Z,1018.46
2018-07-03T05:54:26.790Z,1018.55
2018-07-03T05:55:26.814Z,1018.53
2018-07-03T05:56:26.907Z,1018.54
2018-07-03T05:57:26.802Z,1018.71
2018-07-03T05:58:26.803Z,1018.55
2018-07-03T05:59:28.218Z,1018.35
2018-07-03T06:00:26.836Z,1018.51
2018-07-03T06:01:26.823Z,1018.28
2018-07-03T06:02:26.819Z,1018.45
2018-07-03T06:04:31.322Z,1018.62
2018-07-03T06:04:44.022Z,1018.47
2018-07-03T06:05:44.352Z,1018.44
2018-07-03T06:06:43.996Z,1018.63
2018-07-03T06:07:44.004Z,1018.66
2018-07-03T06:08:43.983Z,1018.4
2018-07-03T06:09:44.032Z,1018.56
2018-07-03T06:10:43.983Z,1018.73
2018-07-03T06:11:44.014Z,1018.63
2018-07-03T06:12:44.021Z,1018.67
2018-07-03T06:13:43.990Z,1018.59
2018-07-03T06:14:44.009Z,1018.99
2018-07-03T06:15:44.015Z,1018.59
2018-07-03T06:16:43.999Z,1018.9
2018-07-03T06:17:44.017Z,1018.65
2018-07-03T06:18:44.011Z,1018.98
2018-07-03T06:19:43.998Z,1018.81
2018-07-03T06:20:44.049Z,1018.88
2018-07-03T06:21:44.044Z,1018.65
2018-07-03T06:22:44.017Z,1018.78
2018-07-03T06:23:44.043Z,1018.86
2018-07-03T06:24:44.034Z,1019.07
2018-07-03T06:25:44.031Z,1018.97
2018-07-03T06:26:44.022Z,1018.91
2018-07-03T06:27:44.045Z,1018.72
2018-07-03T06:28:44.059Z,1018.82
2018-07-03T06:29:44.375Z,1018.96
2018-07-03T06:30:44.030Z,1018.96
2018-07-03T06:31:44.044Z,1018.97
2018-07-03T06:32:44.023Z,1018.76
2018-07-03T06:33:44.069Z,1018.97
2018-07-03T06:34:44.063Z,1019.14
2018-07-03T06:35:44.062Z,1018.9
2018-07-03T06:36:44.067Z,1018.96
2018-07-03T06:37:44.039Z,1019.06
2018-07-03T06:38:44.048Z,1019.32
2018-07-03T06:39:44.048Z,1019.06
2018-07-03T06:40:44.064Z,1019.19
2018-07-03T06:41:44.069Z,1019.11
2018-07-03T06:42:44.065Z,1018.98
2018-07-03T06:43:44.054Z,1019.22
2018-07-03T06:44:44.114Z,1019.12
2018-07-03T06:45:44.067Z,1019.1
2018-07-03T06:46:44.731Z,1018.95
2018-07-03T06:47:44.046Z,1018.93
2018-07-03T06:48:44.103Z,1019.19
2018-07-03T06:49:44.069Z,1019.16
2018-07-03T06:50:44.061Z,1019.18
2018-07-03T06:51:44.132Z,1018.89
2018-07-03T06:52:44.098Z,1019.35
2018-07-03T06:53:44.064Z,1019.16
2018-07-03T06:54:44.080Z,1019.1
2018-07-03T06:55:44.079Z,1019.36
2018-07-03T06:56:45.042Z,1019.35
2018-07-03T06:57:44.085Z,1019.29
2018-07-03T06:58:44.080Z,1019.27
2018-07-03T06:59:44.087Z,1019.37
2018-07-03T07:00:44.081Z,1019.51
2018-07-03T07:01:44.097Z,1019.49
2018-07-03T07:02:44.079Z,1019.46
2018-07-03T07:03:44.112Z,1019.57
2018-07-03T07:04:46.460Z,1019.35
2018-07-03T07:05:44.087Z,1019.75
2018-07-03T07:06:44.079Z,1019.48
2018-07-03T07:07:44.098Z,1019.74
2018-07-03T07:08:44.207Z,1019.59
2018-07-03T07:09:44.087Z,1019.6
2018-07-03T07:10:44.127Z,1019.8
2018-07-03T07:11:44.083Z,1020.06
2018-07-03T07:12:44.102Z,1019.9
2018-07-03T07:13:44.133Z,1019.72
2018-07-03T07:14:44.107Z,1019.82
2018-07-03T07:15:44.100Z,1019.75
2018-07-03T07:16:44.106Z,1019.91
2018-07-03T07:17:44.112Z,1019.93
2018-07-03T07:18:44.122Z,1019.99
2018-07-03T07:19:44.107Z,1019.86
2018-07-03T07:20:44.116Z,1019.95
2018-07-03T07:21:44.095Z,1020.18
2018-07-03T07:22:44.133Z,1020.21
2018-07-03T07:23:44.151Z,1019.98
2018-07-03T07:24:44.112Z,1019.8
2018-07-03T07:25:44.120Z,1019.76
2018-07-03T07:26:44.123Z,1020.16
2018-07-03T07:27:44.149Z,1019.96
2018-07-03T07:28:44.145Z,1019.99
2018-07-03T07:29:44.116Z,1020.06
2018-07-03T07:30:44.134Z,1020.63
2018-07-03T07:31:44.184Z,1020.11
2018-07-03T07:32:44.134Z,1020.35
2018-07-03T07:33:44.163Z,1020.5
2018-07-03T07:34:44.146Z,1020.54
2018-07-03T07:35:44.141Z,1020.65
2018-07-03T07:36:44.151Z,1020.23
2018-07-03T07:37:44.158Z,1020.12
2018-07-03T07:38:44.147Z,1020.73
2018-07-03T07:39:44.137Z,1020.46
2018-07-03T07:40:44.138Z,1020.44
2018-07-03T07:41:44.138Z,1020.61
2018-07-03T07:42:44.227Z,1020.42
2018-07-03T07:43:44.152Z,1020.76
2018-07-03T07:44:44.165Z,1020.68
2018-07-03T07:45:44.170Z,1020.62
2018-07-03T07:46:44.161Z,1020.94
2018-07-03T07:47:44.185Z,1020.74
2018-07-03T07:48:44.162Z,1020.66
2018-07-03T07:49:44.183Z,1020.98
2018-07-03T07:50:44.183Z,1020.73
2018-07-03T07:51:44.212Z,1020.89
2018-07-03T07:52:44.185Z,1020.84
2018-07-03T07:53:44.160Z,1020.62
2018-07-03T07:54:44.184Z,1020.81
2018-07-03T07:55:44.166Z,1020.98
2018-07-03T07:56:44.202Z,1020.87
2018-07-03T07:57:44.230Z,1020.96
2018-07-03T07:58:44.174Z,1021
2018-07-03T07:59:44.202Z,1020.87
2018-07-03T08:00:44.174Z,1020.82
2018-07-03T08:01:44.173Z,1020.99
2018-07-03T08:02:44.185Z,1020.82
2018-07-03T08:03:44.180Z,1020.96
2018-07-03T08:04:44.192Z,1020.73
2018-07-03T08:05:44.192Z,1021.03
2018-07-03T08:06:44.262Z,1021.21
2018-07-03T08:09:02.894Z,1021.29
2018-07-03T08:10:04.378Z,1020.95
2018-07-03T08:11:03.632Z,1021.18
2018-07-03T08:11:55.741Z,1020.7
2018-07-03T08:12:55.815Z,1021.2
2018-07-03T08:13:55.790Z,1021.37
2018-07-03T08:14:56.172Z,1021.27
2018-07-03T08:15:55.803Z,1021.09
2018-07-03T08:16:55.834Z,1021.28
2018-07-03T08:17:55.804Z,1021.13
2018-07-03T08:18:55.827Z,1021.3
2018-07-03T08:19:55.796Z,1021.38
2018-07-03T08:20:55.797Z,1021.39
2018-07-03T08:21:55.829Z,1021.37
2018-07-03T08:22:55.822Z,1021.37
2018-07-03T08:23:55.853Z,1021.19
2018-07-03T08:24:55.813Z,1021.41
2018-07-03T08:25:55.806Z,1021.38
2018-07-03T08:26:55.837Z,1021.35
2018-07-03T08:27:55.815Z,1021.27
2018-07-03T08:28:55.824Z,1021.38
2018-07-03T08:29:55.844Z,1021.3
2018-07-03T08:30:55.823Z,1021.36
2018-07-03T08:31:55.838Z,1021.5
2018-07-03T08:32:55.845Z,1021.72
2018-07-03T08:33:55.883Z,1021.37
2018-07-03T08:34:55.836Z,1021.27
2018-07-03T08:35:55.863Z,1021.39
2018-07-03T08:36:55.832Z,1021.31
2018-07-03T08:37:55.849Z,1021.49
2018-07-03T08:38:55.840Z,1021.4
2018-07-03T08:39:55.871Z,1021.25
2018-07-03T08:40:55.835Z,1021.3
2018-07-03T08:41:55.839Z,1021.16
2018-07-03T08:42:55.934Z,1021.19
2018-07-03T08:43:55.862Z,1021.3
2018-07-03T08:44:55.866Z,1021.07
2018-07-03T08:45:55.875Z,1021.24
2018-07-03T08:46:55.843Z,1021.14
2018-07-03T08:47:55.862Z,1021.43
2018-07-03T08:48:55.894Z,1021.49
2018-07-03T08:49:55.875Z,1021.42
2018-07-03T08:50:55.879Z,1021.24
2018-07-03T08:51:55.909Z,1021.61
2018-07-03T08:52:55.873Z,1021.26
2018-07-03T08:53:55.874Z,1021.19
2018-07-03T08:54:55.889Z,1021.38
2018-07-03T08:55:55.898Z,1021.46
2018-07-03T08:56:55.902Z,1021.48
2018-07-03T08:57:55.870Z,1021.54
2018-07-03T08:58:55.870Z,1021.27
2018-07-03T08:59:55.889Z,1021.1
2018-07-03T09:00:55.987Z,1021.49
2018-07-03T09:01:55.909Z,1021.27
2018-07-03T09:02:56.906Z,1021.24
2018-07-03T09:03:55.915Z,1021.42
2018-07-03T09:04:55.898Z,1021.2
2018-07-03T09:05:55.909Z,1021.51
2018-07-03T09:06:55.932Z,1021.35
2018-07-03T09:07:55.888Z,1021.32
2018-07-03T09:08:55.910Z,1021.32
2018-07-03T09:09:55.921Z,1021.57
2018-07-03T09:10:55.893Z,1021.54
2018-07-03T09:11:55.897Z,1021.29
2018-07-03T09:12:55.907Z,1021.24
2018-07-03T09:13:55.904Z,1021.43
2018-07-03T09:14:55.938Z,1021.43
2018-07-03T09:15:55.914Z,1021.35
2018-07-03T09:16:55.908Z,1021.16
2018-07-03T09:17:55.945Z,1021.13
2018-07-03T09:18:55.915Z,1021.15
2018-07-03T09:19:55.937Z,1021.21
2018-07-03T09:20:55.927Z,1021.41
2018-07-03T09:21:55.921Z,1021.28
2018-07-03T09:22:55.921Z,1021.04
2018-07-03T09:23:55.939Z,1021.15
2018-07-03T09:24:55.935Z,1021.05
2018-07-03T09:25:55.911Z,1021.23
2018-07-03T09:26:55.927Z,1021.32
2018-07-03T09:27:55.926Z,1020.97
2018-07-03T09:28:55.941Z,1021.11
2018-07-03T09:29:55.956Z,1021.06
2018-07-03T09:30:55.918Z,1020.85
2018-07-03T09:31:55.943Z,1021.16
2018-07-03T09:32:55.951Z,1020.87
2018-07-03T09:33:55.939Z,1021.1
2018-07-03T09:34:55.924Z,1021.21
2018-07-03T09:35:55.941Z,1021.09
2018-07-03T09:36:55.938Z,1021.12
2018-07-03T09:37:55.966Z,1021.26
2018-07-03T09:38:55.961Z,1021.23
2018-07-03T09:39:55.956Z,1020.81
2018-07-03T09:40:55.975Z,1020.91
2018-07-03T09:41:55.963Z,1021.12
2018-07-03T09:42:55.967Z,1021.07
2018-07-03T09:43:55.961Z,1021.17
2018-07-03T09:44:55.982Z,1020.99
2018-07-03T09:45:58.378Z,1020.62
2018-07-03T09:46:55.963Z,1021.1
2018-07-03T09:47:55.979Z,1021.21
2018-07-03T09:48:55.998Z,1021.36
2018-07-03T09:49:55.973Z,1021.12
2018-07-03T09:50:55.977Z,1021.14
2018-07-03T09:51:57.422Z,1021
2018-07-03T09:52:56.044Z,1021.13
2018-07-03T09:53:55.984Z,1021
2018-07-03T09:54:56.049Z,1020.91
2018-07-03T09:55:55.986Z,1020.95
2018-07-03T09:56:55.989Z,1021.13
2018-07-03T09:57:55.982Z,1021.26
2018-07-03T09:58:55.990Z,1021.15
2018-07-03T09:59:56.005Z,1020.85
2018-07-03T10:00:56.008Z,1021.08
2018-07-03T10:01:56.062Z,1021.02
2018-07-03T10:02:56.031Z,1021.22
2018-07-03T10:03:56.009Z,1020.95
2018-07-03T10:04:56.004Z,1020.92
2018-07-03T10:05:56.017Z,1021.37
2018-07-03T10:06:56.720Z,1020.77
2018-07-03T10:07:56.045Z,1021
2018-07-03T10:08:56.083Z,1021.01
2018-07-03T10:09:56.025Z,1020.99
2018-07-03T10:10:56.037Z,1020.85
2018-07-03T10:11:56.012Z,1021.19
2018-07-03T10:12:56.038Z,1021.1
2018-07-03T10:13:56.039Z,1021.01
2018-07-03T10:14:56.028Z,1021.02
2018-07-03T10:15:56.418Z,1020.85
2018-07-03T10:16:56.042Z,1020.93
2018-07-03T10:17:56.029Z,1020.84
2018-07-03T10:18:56.108Z,1020.91
2018-07-03T10:19:56.033Z,1020.88
2018-07-03T10:20:56.037Z,1020.75
2018-07-03T10:21:56.152Z,1020.89
2018-07-03T10:22:56.034Z,1020.73
2018-07-03T10:23:56.065Z,1021
2018-07-03T10:24:56.085Z,1020.75
2018-07-03T10:25:56.074Z,1020.61
2018-07-03T10:26:56.043Z,1021.06
2018-07-03T10:27:56.056Z,1020.9
2018-07-03T10:28:56.056Z,1020.76
2018-07-03T10:29:56.082Z,1020.75
2018-07-03T10:30:56.063Z,1020.84
2018-07-03T10:31:56.052Z,1020.92
2018-07-03T10:32:56.070Z,1020.77
2018-07-03T10:33:56.089Z,1020.95
2018-07-03T10:34:56.056Z,1020.92
2018-07-03T10:35:56.055Z,1020.91
2018-07-03T10:36:56.081Z,1020.65
2018-07-03T10:37:56.077Z,1020.56
2018-07-03T10:38:56.122Z,1020.77
2018-07-03T10:39:56.117Z,1020.91
2018-07-03T10:40:56.147Z,1020.55
2018-07-03T10:41:56.604Z,1020.73
2018-07-03T10:42:56.143Z,1020.72
2018-07-03T10:43:56.078Z,1020.81
2018-07-03T10:44:56.096Z,1020.83
2018-07-03T10:45:56.101Z,1020.95
2018-07-03T10:46:56.068Z,1020.59
2018-07-03T10:47:56.088Z,1020.56
2018-07-03T10:48:56.076Z,1020.56
2018-07-03T10:49:56.099Z,1020.49
2018-07-03T10:50:56.108Z,1020.81
2018-07-03T10:51:56.079Z,1020.65
2018-07-03T10:52:56.102Z,1020.86
2018-07-03T10:53:56.090Z,1020.78
2018-07-03T10:54:56.104Z,1020.83
2018-07-03T10:55:56.084Z,1020.62
2018-07-03T10:56:56.088Z,1020.76
2018-07-03T10:57:56.133Z,1020.38
2018-07-03T10:58:56.107Z,1020.53
2018-07-03T10:59:56.107Z,1020.41
2018-07-03T11:00:56.093Z,1020.42
2018-07-03T11:01:56.094Z,1020.59
2018-07-03T11:02:56.097Z,1020.35
2018-07-03T11:03:56.147Z,1020.43
2018-07-03T11:04:56.116Z,1020.72
2018-07-03T11:05:56.802Z,1020.57
2018-07-03T11:06:56.110Z,1020.65
2018-07-03T11:07:56.117Z,1020.27
2018-07-03T11:08:56.114Z,1020.52
2018-07-03T11:09:56.107Z,1020.59
2018-07-03T11:10:56.116Z,1020.35
2018-07-03T11:11:56.158Z,1020.35
2018-07-03T11:12:56.127Z,1020.51
2018-07-03T11:13:56.238Z,1020.49
2018-07-03T11:14:56.126Z,1020.24
2018-07-03T11:15:56.131Z,1020.42
2018-07-03T11:16:56.166Z,1020.51
2018-07-03T11:17:56.124Z,1020.43
2018-07-03T11:18:56.129Z,1020.17
2018-07-03T11:19:56.215Z,1020.19
2018-07-03T11:20:56.142Z,1020.52
2018-07-03T11:21:56.123Z,1020.45
2018-07-03T11:22:56.143Z,1020.33
2018-07-03T11:23:56.147Z,1020.43
2018-07-03T11:24:56.153Z,1020.22
2018-07-03T11:25:56.183Z,1020.23
2018-07-03T11:26:56.154Z,1020.13
2018-07-03T11:27:56.251Z,1020.04
2018-07-03T11:28:56.171Z,1020.15
2018-07-03T11:29:56.136Z,1020.35
2018-07-03T11:30:56.185Z,1019.93
2018-07-03T11:31:56.132Z,1019.95
2018-07-03T11:32:57.127Z,1020.21
2018-07-03T11:33:56.162Z,1019.91
2018-07-03T11:34:56.156Z,1019.92
2018-07-03T11:35:56.164Z,1020.1
2018-07-03T11:36:56.173Z,1019.97
2018-07-03T11:37:56.177Z,1019.99
2018-07-03T11:38:56.171Z,1019.98
2018-07-03T11:39:56.201Z,1019.79
2018-07-03T11:40:56.180Z,1020.06
2018-07-03T11:41:56.176Z,1020.09
2018-07-03T11:42:56.231Z,1020.26
2018-07-03T11:43:56.196Z,1019.86
2018-07-03T11:44:56.196Z,1020.1
2018-07-03T11:45:56.162Z,1019.52
2018-07-03T11:46:56.167Z,1019.89
2018-07-03T11:47:56.196Z,1019.81
2018-07-03T11:48:56.192Z,1019.67
2018-07-03T11:49:56.193Z,1019.95
2018-07-03T11:50:56.208Z,1019.67
2018-07-03T11:51:56.217Z,1019.81
2018-07-03T11:52:56.235Z,1019.54
2018-07-03T11:53:56.195Z,1019.81
2018-07-03T11:54:56.213Z,1019.77
2018-07-03T11:55:56.207Z,1020.03
2018-07-03T11:56:56.195Z,1019.71
2018-07-03T11:57:56.226Z,1019.83
2018-07-03T11:58:56.209Z,1019.57
2018-07-03T11:59:56.177Z,1019.65
2018-07-03T12:00:56.213Z,1019.73
2018-07-03T12:01:56.331Z,1019.88
2018-07-03T12:02:56.256Z,1019.55
2018-07-03T12:03:56.203Z,1019.66
2018-07-03T12:04:56.244Z,1019.61
2018-07-03T12:05:56.268Z,1019.64
2018-07-03T12:06:56.242Z,1019.7
2018-07-03T12:07:56.259Z,1019.46
2018-07-03T12:08:56.223Z,1019.47
2018-07-03T12:09:56.268Z,1019.23
2018-07-03T12:10:56.233Z,1019.55
2018-07-03T12:11:56.259Z,1019.42
2018-07-03T12:12:56.274Z,1019.4
2018-07-03T12:13:56.217Z,1019.5
2018-07-03T12:14:56.211Z,1019.69
2018-07-03T12:15:56.249Z,1019.25
2018-07-03T12:16:56.237Z,1019.52